sensor_id;sensor_type;location;lat;lon;timestamp;pressure;altitude;pressure_sealevel;temperature;humidity
64243;BME280;50573;51.512;5.386;2023-05-17T00:02:14;77267.00;;;7.83;100.00
64243;BME280;50573;51.512;5.386;2023-05-17T00:12:17;77273.63;;;7.77;100.00
64243;BME280;50573;51.512;5.386;2023-05-17T00:22:21;77263.41;;;7.68;100.00
64243;BME280;50573;51.512;5.386;2023-05-17T00:32:25;77249.19;;;7.65;100.00
64243;BME280;50573;51.512;5.386;2023-05-17T00:42:29;77254.28;;;7.60;100.00
64243;BME280;50573;51.512;5.386;2023-05-17T00:52:32;77235.13;;;7.55;100.00
64243;BME280;50573;51.512;5.386;2023-05-17T01:02:36;77233.97;;;7.54;100.00
64243;BME280;50573;51.512;5.386;2023-05-17T01:12:52;77225.28;;;7.44;100.00
64243;BME280;50573;51.512;5.386;2023-05-17T01:23:09;77209.06;;;7.35;100.00
64243;BME280;50573;51.512;5.386;2023-05-17T01:33:22;77208.28;;;7.22;100.00
64243;BME280;50573;51.512;5.386;2023-05-17T01:43:25;77214.00;;;7.27;100.00
64243;BME280;50573;51.512;5.386;2023-05-17T01:53:37;77204.94;;;7.29;100.00
64243;BME280;50573;51.512;5.386;2023-05-17T02:03:40;77225.94;;;7.38;100.00
64243;BME280;50573;51.512;5.386;2023-05-17T02:13:45;77217.47;;;7.40;100.00
64243;BME280;50573;51.512;5.386;2023-05-17T02:23:48;77217.31;;;7.37;100.00
64243;BME280;50573;51.512;5.386;2023-05-17T02:33:54;77217.41;;;7.30;100.00
64243;BME280;50573;51.512;5.386;2023-05-17T02:43:57;77215.13;;;7.28;100.00
64243;BME280;50573;51.512;5.386;2023-05-17T02:54:02;77225.28;;;7.44;100.00
64243;BME280;50573;51.512;5.386;2023-05-17T03:04:05;77271.34;;;7.75;100.00
64243;BME280;50573;51.512;5.386;2023-05-17T03:14:09;77292.50;;;8.03;100.00
64243;BME280;50573;51.512;5.386;2023-05-17T03:24:13;77309.72;;;8.21;100.00
64243;BME280;50573;51.512;5.386;2023-05-17T03:34:18;77327.56;;;8.39;100.00
64243;BME280;50573;51.512;5.386;2023-05-17T03:44:21;77347.91;;;8.55;100.00
64243;BME280;50573;51.512;5.386;2023-05-17T03:54:27;77361.75;;;8.69;100.00
64243;BME280;50573;51.512;5.386;2023-05-17T04:04:30;77356.31;;;8.60;100.00
64243;BME280;50573;51.512;5.386;2023-05-17T04:14:34;77347.91;;;8.55;100.00
64243;BME280;50573;51.512;5.386;2023-05-17T04:24:38;77350.16;;;8.47;100.00
64243;BME280;50573;51.512;5.386;2023-05-17T04:34:43;77344.50;;;8.52;100.00
64243;BME280;50573;51.512;5.386;2023-05-17T04:44:46;77356.63;;;8.65;100.00
64243;BME280;50573;51.512;5.386;2023-05-17T04:54:51;77374.72;;;8.78;100.00
64243;BME280;50573;51.512;5.386;2023-05-17T05:04:55;77406.59;;;8.97;100.00
64243;BME280;50573;51.512;5.386;2023-05-17T05:15:01;77424.13;;;9.19;100.00
64243;BME280;50573;51.512;5.386;2023-05-17T05:25:05;77449.38;;;9.44;100.00
64243;BME280;50573;51.512;5.386;2023-05-17T05:35:09;77479.31;;;9.75;100.00
64243;BME280;50573;51.512;5.386;2023-05-17T05:45:14;77532.06;;;10.17;100.00
64243;BME280;50573;51.512;5.386;2023-05-17T05:55:20;77592.41;;;10.67;100.00
64243;BME280;50573;51.512;5.386;2023-05-17T06:05:24;77633.63;;;10.96;100.00
64243;BME280;50573;51.512;5.386;2023-05-17T06:15:30;77647.88;;;11.18;100.00
64243;BME280;50573;51.512;5.386;2023-05-17T06:25:33;77681.00;;;11.48;100.00
64243;BME280;50573;51.512;5.386;2023-05-17T06:35:37;77706.56;;;11.68;96.84
64243;BME280;50573;51.512;5.386;2023-05-17T06:45:56;77718.28;;;11.83;86.88
64243;BME280;50573;51.512;5.386;2023-05-17T06:56:03;77705.97;;;11.58;79.18
64243;BME280;50573;51.512;5.386;2023-05-17T07:06:07;77720.41;;;11.73;78.96
64243;BME280;50573;51.512;5.386;2023-05-17T07:16:11;77775.09;;;12.28;75.33
64243;BME280;50573;51.512;5.386;2023-05-17T07:26:14;77786.34;;;12.45;69.96
64243;BME280;50573;51.512;5.386;2023-05-17T07:36:18;77826.50;;;12.73;69.14
64243;BME280;50573;51.512;5.386;2023-05-17T07:46:22;77811.63;;;12.60;68.93
64243;BME280;50573;51.512;5.386;2023-05-17T07:56:26;77828.63;;;12.82;66.25
64243;BME280;50573;51.512;5.386;2023-05-17T08:06:29;77922.34;;;13.64;65.59
64243;BME280;50573;51.512;5.386;2023-05-17T08:16:34;77974.09;;;14.05;58.03
64243;BME280;50573;51.512;5.386;2023-05-17T08:26:37;77986.53;;;14.14;56.73
64243;BME280;50573;51.512;5.386;2023-05-17T08:36:41;78004.41;;;14.32;58.19
64243;BME280;50573;51.512;5.386;2023-05-17T08:46:46;77991.69;;;14.18;55.51
64243;BME280;50573;51.512;5.386;2023-05-17T08:56:57;77981.53;;;14.12;56.73
64243;BME280;50573;51.512;5.386;2023-05-17T09:07:02;78026.28;;;14.53;56.53
64243;BME280;50573;51.512;5.386;2023-05-17T09:17:07;78024.44;;;14.40;53.78
64243;BME280;50573;51.512;5.386;2023-05-17T09:27:14;78092.75;;;15.14;55.47
64243;BME280;50573;51.512;5.386;2023-05-17T09:37:18;78060.72;;;14.86;52.75
64243;BME280;50573;51.512;5.386;2023-05-17T09:47:25;78156.69;;;15.68;52.61
64243;BME280;50573;51.512;5.386;2023-05-17T09:57:35;78064.47;;;14.84;55.01
64243;BME280;50573;51.512;5.386;2023-05-17T10:07:40;78107.34;;;15.22;52.64
64243;BME280;50573;51.512;5.386;2023-05-17T10:17:45;78210.94;;;16.13;51.21
64243;BME280;50573;51.512;5.386;2023-05-17T10:27:48;78228.09;;;16.28;51.31
64243;BME280;50573;51.512;5.386;2023-05-17T10:37:54;78162.28;;;15.70;52.22
64243;BME280;50573;51.512;5.386;2023-05-17T10:48:01;78161.13;;;15.69;50.63
64243;BME280;50573;51.512;5.386;2023-05-17T10:58:16;78165.19;;;15.63;48.24
64243;BME280;50573;51.512;5.386;2023-05-17T11:08:20;78232.72;;;16.22;49.38
64243;BME280;50573;51.512;5.386;2023-05-17T11:18:24;78278.75;;;16.77;47.07
64243;BME280;50573;51.512;5.386;2023-05-17T11:28:33;78323.97;;;17.17;47.35
64243;BME280;50573;51.512;5.386;2023-05-17T11:38:37;78273.34;;;16.68;46.86
64243;BME280;50573;51.512;5.386;2023-05-17T11:48:41;78317.88;;;17.04;47.39
64243;BME280;50573;51.512;5.386;2023-05-17T11:58:49;78243.56;;;16.41;45.32
64243;BME280;50573;51.512;5.386;2023-05-17T12:08:53;78297.66;;;16.94;44.44
64243;BME280;50573;51.512;5.386;2023-05-17T12:18:57;78301.09;;;16.97;43.58
64243;BME280;50573;51.512;5.386;2023-05-17T12:29:01;78269.34;;;16.64;44.84
64243;BME280;50573;51.512;5.386;2023-05-17T12:39:05;78304.94;;;16.98;44.90
64243;BME280;50573;51.512;5.386;2023-05-17T12:49:10;78326.00;;;17.14;45.73
64243;BME280;50573;51.512;5.386;2023-05-17T12:59:16;78275.66;;;16.70;44.69
64243;BME280;50573;51.512;5.386;2023-05-17T13:09:22;78254.13;;;16.55;42.88
64243;BME280;50573;51.512;5.386;2023-05-17T13:19:27;78222.94;;;16.23;42.43
64243;BME280;50573;51.512;5.386;2023-05-17T13:29:32;78288.22;;;16.81;40.61
64243;BME280;50573;51.512;5.386;2023-05-17T13:39:42;78357.78;;;17.46;40.95
64243;BME280;50573;51.512;5.386;2023-05-17T13:49:45;78321.00;;;17.12;40.27
64243;BME280;50573;51.512;5.386;2023-05-17T13:59:49;78323.97;;;17.17;38.30
64243;BME280;50573;51.512;5.386;2023-05-17T14:09:52;78320.53;;;17.14;39.43
64243;BME280;50573;51.512;5.386;2023-05-17T14:19:56;78379.53;;;17.65;38.61
64243;BME280;50573;51.512;5.386;2023-05-17T14:29:59;78390.19;;;17.70;36.49
64243;BME280;50573;51.512;5.386;2023-05-17T14:40:05;78407.59;;;17.90;38.17
64243;BME280;50573;51.512;5.386;2023-05-17T14:50:09;78456.63;;;18.28;36.90
64243;BME280;50573;51.512;5.386;2023-05-17T15:00:14;78425.94;;;18.06;37.26
64243;BME280;50573;51.512;5.386;2023-05-17T15:10:24;78373.25;;;17.60;36.36
64243;BME280;50573;51.512;5.386;2023-05-17T15:20:27;78306.13;;;16.99;37.15
64243;BME280;50573;51.512;5.386;2023-05-17T15:30:32;78272.78;;;16.67;39.62
64243;BME280;50573;51.512;5.386;2023-05-17T15:40:35;78228.78;;;16.31;39.41
64243;BME280;50573;51.512;5.386;2023-05-17T15:50:39;78176.84;;;15.88;37.93
64243;BME280;50573;51.512;5.386;2023-05-17T16:00:42;78158.75;;;15.55;39.84
64243;BME280;50573;51.512;5.386;2023-05-17T16:10:47;78134.25;;;15.46;41.74
64243;BME280;50573;51.512;5.386;2023-05-17T16:20:55;78107.78;;;15.20;42.98
64243;BME280;50573;51.512;5.386;2023-05-17T16:31:00;78067.44;;;14.89;42.88
64243;BME280;50573;51.512;5.386;2023-05-17T16:41:06;78056.31;;;14.75;43.01
64243;BME280;50573;51.512;5.386;2023-05-17T16:51:17;78071.19;;;14.88;43.31
64243;BME280;50573;51.512;5.386;2023-05-17T17:01:23;78032.31;;;14.54;44.69
64243;BME280;50573;51.512;5.386;2023-05-17T17:11:31;78024.41;;;14.49;44.39
64243;BME280;50573;51.512;5.386;2023-05-17T17:21:41;78046.03;;;14.56;47.04
64243;BME280;50573;51.512;5.386;2023-05-17T17:31:49;78001.69;;;14.32;46.75
64243;BME280;50573;51.512;5.386;2023-05-17T17:41:55;77989.50;;;14.19;46.92
64243;BME280;50573;51.512;5.386;2023-05-17T17:52:06;77964.38;;;13.97;47.45
64243;BME280;50573;51.512;5.386;2023-05-17T18:02:12;77992.13;;;14.07;49.66
64243;BME280;50573;51.512;5.386;2023-05-17T18:12:21;77962.66;;;13.95;49.93
64243;BME280;50573;51.512;5.386;2023-05-17T18:22:28;77944.94;;;13.79;50.01
64243;BME280;50573;51.512;5.386;2023-05-17T18:32:39;77940.50;;;13.68;52.01
64243;BME280;50573;51.512;5.386;2023-05-17T18:42:46;77900.94;;;13.41;53.81
64243;BME280;50573;51.512;5.386;2023-05-17T18:52:56;77879.81;;;13.13;55.85
64243;BME280;50573;51.512;5.386;2023-05-17T19:03:03;77831.06;;;12.77;57.67
64243;BME280;50573;51.512;5.386;2023-05-17T19:13:13;77785.81;;;12.44;60.27
64243;BME280;50573;51.512;5.386;2023-05-17T19:23:17;77770.66;;;12.17;63.21
64243;BME280;50573;51.512;5.386;2023-05-17T19:33:23;77735.84;;;11.96;65.25
64243;BME280;50573;51.512;5.386;2023-05-17T19:43:26;77710.69;;;11.64;67.29
64243;BME280;50573;51.512;5.386;2023-05-17T19:53:30;77683.88;;;11.50;69.15
64243;BME280;50573;51.512;5.386;2023-05-17T20:03:52;77657.03;;;11.27;71.10
64243;BME280;50573;51.512;5.386;2023-05-17T20:13:57;77642.47;;;11.18;72.08
64243;BME280;50573;51.512;5.386;2023-05-17T20:24:00;77621.66;;;10.95;74.40
64243;BME280;50573;51.512;5.386;2023-05-17T20:34:06;77598.81;;;10.75;75.36
64243;BME280;50573;51.512;5.386;2023-05-17T20:44:09;77584.00;;;10.62;75.31
64243;BME280;50573;51.512;5.386;2023-05-17T20:54:14;77565.16;;;10.36;77.58
64243;BME280;50573;51.512;5.386;2023-05-17T21:04:17;77536.66;;;10.21;77.67
64243;BME280;50573;51.512;5.386;2023-05-17T21:14:22;77534.34;;;10.09;78.69
64243;BME280;50573;51.512;5.386;2023-05-17T21:24:25;77483.16;;;9.76;80.95
64243;BME280;50573;51.512;5.386;2023-05-17T21:34:29;77482.41;;;9.63;81.38
64243;BME280;50573;51.512;5.386;2023-05-17T21:44:32;77464.75;;;9.48;82.62
64243;BME280;50573;51.512;5.386;2023-05-17T21:54:37;77449.91;;;9.35;82.45
64243;BME280;50573;51.512;5.386;2023-05-17T22:04:41;77418.00;;;9.16;83.67
64243;BME280;50573;51.512;5.386;2023-05-17T22:14:46;77411.00;;;8.98;85.10
64243;BME280;50573;51.512;5.386;2023-05-17T22:24:49;77390.66;;;8.92;85.52
64243;BME280;50573;51.512;5.386;2023-05-17T22:34:54;77390.31;;;8.78;85.92
64243;BME280;50573;51.512;5.386;2023-05-17T22:44:57;77357.75;;;8.66;86.25
64243;BME280;50573;51.512;5.386;2023-05-17T22:55:01;77347.38;;;8.54;86.89
64243;BME280;50573;51.512;5.386;2023-05-17T23:05:07;77339.22;;;8.44;87.53
64243;BME280;50573;51.512;5.386;2023-05-17T23:15:12;77332.50;;;8.31;87.44
64243;BME280;50573;51.512;5.386;2023-05-17T23:25:17;77315.38;;;8.16;88.90
64243;BME280;50573;51.512;5.386;2023-05-17T23:35:23;77292.06;;;8.05;88.83
64243;BME280;50573;51.512;5.386;2023-05-17T23:45:26;77294.88;;;7.98;89.10
64243;BME280;50573;51.512;5.386;2023-05-17T23:55:32;77280.47;;;7.83;88.41
